createdAt,value
2023-06-22T00:24:10.746Z,26.40
2023-06-22T00:29:12.977Z,25.50
2023-06-22T00:34:15.239Z,25.60
2023-06-22T00:39:18.013Z,25.30
2023-06-22T00:44:20.217Z,25.00
2023-06-22T00:49:22.803Z,25.40
2023-06-22T00:54:26.830Z,25.70
2023-06-22T00:59:29.986Z,25.80
2023-06-22T01:04:40.173Z,25.90
2023-06-22T01:10:05.929Z,25.90
2023-06-22T01:15:22.254Z,25.60
2023-06-22T01:20:28.579Z,25.80
2023-06-22T01:25:46.056Z,25.70
2023-06-22T01:31:02.133Z,25.70
2023-06-22T01:36:07.792Z,25.60
2023-06-22T01:41:11.569Z,24.70
2023-06-22T01:46:16.500Z,25.10
2023-06-22T01:51:18.853Z,25.30
2023-06-22T01:56:21.118Z,25.40
2023-06-22T02:01:32.879Z,25.50
2023-06-22T02:06:40.376Z,25.20
2023-06-22T02:11:47.217Z,25.50
2023-06-22T02:16:52.529Z,25.60
2023-06-22T02:21:54.893Z,25.70
2023-06-22T02:26:57.232Z,25.60
2023-06-22T02:31:59.737Z,25.50
2023-06-22T02:37:03.838Z,25.60
2023-06-22T02:42:06.110Z,25.50
2023-06-22T02:47:08.613Z,25.00
2023-06-22T02:52:10.733Z,25.20
2023-06-22T02:57:15.075Z,25.40
2023-06-22T03:02:19.759Z,25.50
2023-06-22T03:07:22.214Z,25.50
2023-06-22T03:12:26.754Z,25.50
2023-06-22T03:17:30.972Z,25.50
2023-06-22T03:22:33.198Z,25.20
2023-06-22T03:27:35.314Z,25.10
2023-06-22T03:32:37.615Z,25.20
2023-06-22T03:37:41.893Z,24.60
2023-06-22T03:42:44.060Z,24.90
2023-06-22T03:47:46.297Z,24.70
2023-06-22T03:52:48.678Z,25.00
2023-06-22T03:57:50.925Z,25.00
2023-06-22T04:02:53.278Z,25.00
2023-06-22T04:07:55.799Z,25.10
2023-06-22T04:12:58.184Z,25.10
2023-06-22T04:18:00.321Z,24.60
2023-06-22T04:23:02.475Z,24.80
2023-06-22T04:28:05.481Z,25.00
2023-06-22T04:33:07.700Z,25.10
2023-06-22T04:38:10.300Z,25.10
2023-06-22T04:43:12.423Z,25.20
2023-06-22T04:48:17.446Z,25.40
2023-06-22T04:53:19.765Z,25.40
2023-06-22T04:58:22.644Z,25.40
2023-06-22T05:03:27.601Z,25.50
2023-06-22T05:08:29.934Z,25.50
2023-06-22T05:13:32.494Z,25.50
2023-06-22T05:18:36.312Z,25.60
2023-06-22T05:23:38.531Z,25.60
2023-06-22T05:28:40.619Z,25.60
2023-06-22T05:33:45.248Z,25.70
2023-06-22T05:38:47.621Z,25.70
2023-06-22T05:43:49.785Z,25.70
2023-06-22T05:48:51.908Z,25.70
2023-06-22T05:53:54.082Z,25.70
2023-06-22T05:58:56.467Z,25.70
2023-06-22T06:03:58.756Z,25.70
2023-06-22T06:09:01.110Z,25.60
2023-06-22T06:14:03.287Z,25.60
2023-06-22T06:19:05.410Z,25.60
2023-06-22T06:24:07.952Z,25.70
2023-06-22T06:29:10.189Z,25.70
2023-06-22T06:34:12.321Z,25.90
2023-06-22T06:39:14.554Z,26.00
2023-06-22T06:44:16.776Z,25.90
2023-06-22T06:49:18.888Z,25.90
2023-06-22T06:54:22.012Z,25.90
2023-06-22T06:59:24.226Z,26.10
2023-06-22T07:04:26.780Z,26.20
2023-06-22T07:09:29.316Z,26.30
2023-06-22T07:14:32.808Z,26.50
2023-06-22T07:19:35.323Z,26.60
2023-06-22T07:24:38.381Z,26.50
2023-06-22T07:29:43.580Z,26.60
2023-06-22T07:34:45.792Z,26.70
2023-06-22T07:39:48.022Z,26.90
2023-06-22T07:44:52.245Z,27.10
2023-06-22T07:49:56.118Z,27.30
2023-06-22T07:54:58.529Z,27.30
2023-06-22T08:00:17.129Z,27.50
2023-06-22T08:05:22.401Z,27.50
2023-06-22T08:10:25.872Z,27.40
2023-06-22T08:15:30.027Z,27.50
2023-06-22T08:20:32.692Z,27.80
2023-06-22T08:25:35.938Z,28.10
2023-06-22T08:30:38.355Z,28.00
2023-06-22T08:35:40.587Z,27.90
2023-06-22T08:40:43.248Z,27.90
2023-06-22T08:45:45.438Z,28.10
2023-06-22T08:50:48.053Z,28.30
2023-06-22T08:55:52.118Z,28.90
2023-06-22T09:00:54.347Z,29.20
2023-06-22T09:05:57.206Z,29.60
2023-06-22T09:10:59.423Z,29.20
2023-06-22T09:16:01.717Z,29.30
2023-06-22T09:21:04.230Z,28.90
2023-06-22T09:26:07.540Z,29.30
2023-06-22T09:31:09.894Z,30.20
2023-06-22T09:36:12.020Z,30.10
2023-06-22T09:41:14.202Z,30.40
2023-06-22T09:46:19.249Z,31.00
2023-06-22T09:51:22.971Z,31.10
2023-06-22T09:56:26.760Z,31.50
2023-06-22T10:01:30.278Z,31.60
2023-06-22T10:06:32.399Z,31.80
2023-06-22T10:11:36.304Z,32.00
2023-06-22T10:16:38.741Z,31.70
2023-06-22T10:21:41.028Z,31.30
2023-06-22T10:26:43.177Z,31.50
2023-06-22T10:31:45.350Z,32.00
2023-06-22T10:36:49.881Z,32.00
2023-06-22T10:41:52.204Z,32.50
2023-06-22T10:46:54.360Z,33.20
2023-06-22T10:51:56.834Z,32.70
2023-06-22T10:56:59.119Z,32.40
2023-06-22T11:02:01.392Z,31.90
2023-06-22T11:07:04.182Z,31.90
2023-06-22T11:12:07.539Z,31.70
2023-06-22T11:17:09.644Z,31.70
2023-06-22T11:22:12.064Z,31.50
2023-06-22T11:27:14.370Z,31.40
2023-06-22T11:32:16.686Z,31.50
2023-06-22T11:37:18.840Z,31.60
2023-06-22T11:42:21.017Z,31.70
2023-06-22T11:47:23.201Z,31.90
2023-06-22T11:52:25.643Z,31.70
2023-06-22T11:57:27.974Z,31.70
2023-06-22T12:02:30.354Z,31.30
2023-06-22T12:07:32.687Z,31.40
2023-06-22T12:12:34.836Z,31.80
2023-06-22T12:17:37.173Z,31.80
2023-06-22T12:22:39.322Z,31.60
2023-06-22T12:27:41.429Z,31.70
2023-06-22T12:32:44.284Z,31.80
2023-06-22T12:37:46.486Z,31.40
2023-06-22T12:42:48.673Z,31.30
2023-06-22T12:47:51.411Z,31.40
2023-06-22T12:52:53.902Z,31.30
2023-06-22T12:57:56.595Z,31.30
2023-06-22T13:02:59.078Z,31.30
2023-06-22T13:08:01.196Z,31.40
2023-06-22T13:13:03.437Z,31.40
2023-06-22T13:18:05.734Z,31.40
2023-06-22T13:23:08.033Z,31.30
2023-06-22T13:28:23.610Z,31.10
2023-06-22T13:33:29.914Z,31.20
2023-06-22T13:38:33.425Z,31.50
2023-06-22T13:43:35.595Z,31.50
2023-06-22T13:48:37.738Z,31.30
2023-06-22T13:53:39.912Z,31.50
2023-06-22T13:58:42.169Z,31.70
2023-06-22T14:03:46.831Z,31.70
2023-06-22T14:08:48.909Z,31.80
2023-06-22T14:13:51.171Z,31.90
2023-06-22T14:18:55.114Z,32.30
2023-06-22T14:23:59.178Z,33.00
2023-06-22T14:29:01.362Z,33.00
2023-06-22T14:34:04.831Z,32.40
2023-06-22T14:39:06.992Z,32.20
2023-06-22T14:44:09.456Z,32.10
2023-06-22T14:49:11.764Z,32.40
2023-06-22T14:54:13.951Z,32.50
2023-06-22T14:59:16.115Z,32.70
2023-06-22T15:04:18.327Z,32.60
2023-06-22T15:09:20.678Z,32.20
2023-06-22T15:14:23.011Z,32.10
2023-06-22T15:19:25.420Z,32.20
2023-06-22T15:24:27.903Z,32.20
2023-06-22T15:29:35.310Z,32.30
2023-06-22T15:34:37.655Z,32.30
2023-06-22T15:39:39.879Z,32.30
2023-06-22T15:44:42.100Z,32.10
2023-06-22T15:49:44.476Z,32.10
2023-06-22T15:54:47.454Z,32.20
2023-06-22T15:59:49.671Z,32.20
2023-06-22T16:04:51.858Z,31.90
2023-06-22T16:09:54.445Z,31.80
2023-06-22T16:14:57.125Z,31.60
2023-06-22T16:20:00.853Z,31.50
2023-06-22T16:25:03.408Z,31.10
2023-06-22T16:30:08.190Z,31.00
2023-06-22T16:35:10.668Z,30.70
2023-06-22T16:40:13.429Z,30.80
2023-06-22T16:45:19.017Z,30.90
2023-06-22T16:50:21.258Z,30.70
2023-06-22T16:55:25.793Z,30.70
2023-06-22T17:00:28.389Z,30.50
2023-06-22T17:05:32.895Z,30.40
2023-06-22T17:10:35.478Z,30.30
2023-06-22T17:15:40.275Z,30.30
2023-06-22T17:20:42.392Z,30.10
2023-06-22T17:25:47.781Z,30.00
2023-06-22T17:31:11.532Z,30.00
2023-06-22T17:36:15.159Z,29.90
2023-06-22T17:46:20.276Z,29.70
2023-06-22T17:56:53.464Z,28.70
2023-06-22T18:01:55.695Z,28.60
2023-06-22T18:06:58.285Z,28.50
2023-06-22T18:12:04.972Z,28.30
2023-06-22T18:17:07.927Z,28.10
2023-06-22T18:22:10.188Z,27.80
2023-06-22T18:27:15.937Z,27.40
2023-06-22T18:32:18.442Z,27.50
2023-06-22T18:37:21.582Z,27.60
2023-06-22T18:42:24.062Z,27.20
2023-06-22T18:47:32.825Z,27.20
2023-06-22T18:52:40.009Z,26.50
2023-06-22T18:57:42.156Z,26.50
2023-06-22T19:02:49.992Z,26.30
2023-06-22T19:07:57.457Z,26.50
2023-06-22T19:13:31.291Z,26.60
2023-06-22T19:18:41.144Z,26.60
2023-06-22T19:23:46.131Z,26.80
2023-06-22T19:28:55.588Z,26.80
2023-06-22T19:34:07.283Z,26.40
2023-06-22T19:39:09.665Z,26.20
2023-06-22T19:44:11.952Z,25.60
2023-06-22T19:49:18.462Z,25.40
2023-06-22T19:54:20.687Z,25.10
2023-06-22T19:59:25.296Z,25.00
2023-06-22T20:04:28.123Z,24.90
2023-06-22T20:09:30.442Z,24.80
2023-06-22T20:14:36.104Z,24.60
2023-06-22T20:19:42.524Z,24.60
2023-06-22T20:24:46.738Z,24.70
2023-06-22T20:29:49.685Z,24.80
2023-06-22T20:34:51.891Z,24.70
2023-06-22T20:39:54.020Z,24.50
2023-06-22T20:44:56.532Z,24.70
2023-06-22T20:50:00.529Z,24.90
2023-06-22T20:55:02.838Z,24.70
2023-06-22T21:00:09.293Z,25.10
2023-06-22T21:05:13.464Z,25.10
2023-06-22T21:10:16.206Z,25.10
2023-06-22T21:15:18.840Z,25.40
2023-06-22T21:20:20.988Z,26.10
2023-06-22T21:25:23.199Z,26.40
2023-06-22T21:30:25.400Z,25.30
2023-06-22T21:35:28.680Z,25.00
2023-06-22T21:40:30.968Z,24.50
2023-06-22T21:45:33.318Z,24.40
2023-06-22T21:50:38.302Z,23.80
2023-06-22T21:55:40.471Z,23.70
2023-06-22T22:00:42.710Z,23.80
2023-06-22T22:05:46.748Z,23.80
2023-06-22T22:10:49.219Z,23.90
2023-06-22T22:15:52.354Z,24.30
2023-06-22T22:20:54.520Z,23.80
2023-06-22T22:25:57.216Z,24.00
2023-06-22T22:31:00.601Z,23.90
2023-06-22T22:36:06.529Z,23.70
2023-06-22T22:41:08.740Z,23.50
2023-06-22T22:46:10.925Z,23.20
2023-06-22T22:51:13.104Z,22.80
2023-06-22T22:56:16.018Z,22.80
2023-06-22T23:01:18.199Z,22.40
2023-06-22T23:06:20.407Z,22.80
2023-06-22T23:11:29.197Z,22.60
2023-06-22T23:16:31.338Z,22.40
2023-06-22T23:21:34.186Z,22.60
2023-06-22T23:26:36.287Z,22.60
2023-06-22T23:31:38.472Z,22.90
2023-06-22T23:36:40.619Z,22.80
2023-06-22T23:41:43.497Z,22.30
2023-06-22T23:46:45.622Z,22.50
2023-06-22T23:51:47.738Z,22.50
2023-06-22T23:56:53.916Z,22.20
